createdAt,value
2019-01-23T00:01:33.637Z,35.23
2019-01-23T00:04:04.592Z,40.77
2019-01-23T00:06:35.106Z,31.77
2019-01-23T00:09:07.503Z,36.10
2019-01-23T00:11:38.035Z,36.67
2019-01-23T00:14:09.144Z,36.57
2019-01-23T00:16:39.636Z,33.23
2019-01-23T00:19:10.140Z,36.53
2019-01-23T00:21:42.088Z,30.63
2019-01-23T00:24:12.607Z,35.13
2019-01-23T00:26:43.119Z,30.53
2019-01-23T00:29:13.680Z,25.60
2019-01-23T00:31:44.223Z,27.97
2019-01-23T00:34:14.794Z,32.47
2019-01-23T00:36:45.376Z,31.33
2019-01-23T00:39:17.406Z,28.70
2019-01-23T00:41:47.908Z,25.70
2019-01-23T00:44:18.402Z,30.67
2019-01-23T00:46:50.904Z,32.63
2019-01-23T00:49:21.393Z,26.57
2019-01-23T00:51:52.748Z,27.20
2019-01-23T00:54:23.697Z,39.90
2019-01-23T00:56:54.208Z,37.23
2019-01-23T00:59:24.718Z,33.67
2019-01-23T01:01:55.305Z,33.57
2019-01-23T01:04:25.897Z,26.33
2019-01-23T01:06:56.576Z,35.93
2019-01-23T01:09:27.159Z,27.23
2019-01-23T01:11:57.680Z,25.07
2019-01-23T01:14:28.209Z,26.70
2019-01-23T01:16:58.775Z,32.27
2019-01-23T01:19:29.319Z,31.43
2019-01-23T01:21:59.800Z,31.97
2019-01-23T01:24:30.314Z,35.73
2019-01-23T01:27:02.736Z,31.80
2019-01-23T01:29:35.159Z,31.27
2019-01-23T01:32:05.747Z,28.87
2019-01-23T01:34:36.242Z,30.83
2019-01-23T01:37:06.848Z,33.43
2019-01-23T01:39:37.341Z,22.77
2019-01-23T01:42:07.943Z,26.87
2019-01-23T01:44:38.428Z,35.13
2019-01-23T01:47:08.946Z,41.57
2019-01-23T01:49:39.462Z,31.60
2019-01-23T01:52:09.948Z,33.67
2019-01-23T01:54:40.549Z,30.20
2019-01-23T01:57:11.029Z,29.83
2019-01-23T01:59:41.559Z,28.63
2019-01-23T02:02:12.038Z,26.50
2019-01-23T02:04:42.568Z,27.63
2019-01-23T02:07:13.060Z,29.13
2019-01-23T02:09:45.519Z,28.00
2019-01-23T02:12:16.929Z,21.17
2019-01-23T02:14:47.413Z,29.77
2019-01-23T02:17:17.922Z,27.30
2019-01-23T02:19:48.474Z,27.23
2019-01-23T02:22:18.989Z,26.60
2019-01-23T02:24:49.489Z,30.13
2019-01-23T02:27:20.072Z,22.80
2019-01-23T02:29:50.558Z,23.17
2019-01-23T02:32:21.074Z,28.57
2019-01-23T02:34:51.562Z,24.50
2019-01-23T02:37:22.077Z,21.93
2019-01-23T02:39:52.583Z,26.57
2019-01-23T02:42:23.186Z,20.97
2019-01-23T02:44:53.691Z,15.70
2019-01-23T02:47:24.227Z,31.40
2019-01-23T02:49:54.726Z,23.37
2019-01-23T02:52:25.240Z,25.97
2019-01-23T02:54:55.729Z,20.60
2019-01-23T02:57:26.258Z,25.40
2019-01-23T02:59:56.744Z,22.93
2019-01-23T03:02:27.443Z,18.43
2019-01-23T03:04:57.963Z,23.80
2019-01-23T03:07:28.482Z,23.93
2019-01-23T03:09:59.274Z,21.50
2019-01-23T03:12:29.803Z,19.00
2019-01-23T03:15:01.306Z,26.70
2019-01-23T03:17:31.876Z,21.20
2019-01-23T03:20:02.410Z,26.63
2019-01-23T03:22:32.897Z,26.17
2019-01-23T03:25:05.340Z,26.40
2019-01-23T03:27:37.243Z,32.30
2019-01-23T03:30:12.494Z,33.03
2019-01-23T03:32:42.996Z,27.00
2019-01-23T03:35:14.437Z,25.93
2019-01-23T03:37:46.730Z,28.33
2019-01-23T03:40:20.379Z,23.03
2019-01-23T03:42:51.094Z,24.63
2019-01-23T03:45:21.694Z,24.93
2019-01-23T03:47:52.255Z,13.00
2019-01-23T03:50:24.308Z,24.30
2019-01-23T03:52:54.938Z,26.20
2019-01-23T03:55:25.448Z,20.10
2019-01-23T03:57:56.031Z,24.83
2019-01-23T04:00:26.518Z,25.60
2019-01-23T04:02:57.118Z,26.13
2019-01-23T04:05:27.732Z,21.50
2019-01-23T04:07:59.814Z,16.97
2019-01-23T04:10:30.304Z,25.37
2019-01-23T04:13:00.810Z,19.37
2019-01-23T04:15:31.403Z,27.07
2019-01-23T04:18:01.961Z,18.70
2019-01-23T04:20:32.524Z,22.27
2019-01-23T04:23:03.007Z,20.83
2019-01-23T04:25:33.666Z,17.57
2019-01-23T04:28:04.159Z,20.80
2019-01-23T04:30:34.725Z,19.93
2019-01-23T04:33:05.215Z,26.37
2019-01-23T04:35:35.765Z,19.63
2019-01-23T04:38:06.245Z,21.13
2019-01-23T04:40:36.781Z,29.43
2019-01-23T04:43:07.339Z,18.20
2019-01-23T04:45:39.058Z,33.47
2019-01-23T04:48:09.582Z,17.70
2019-01-23T04:50:59.871Z,21.13
2019-01-23T04:53:38.242Z,20.73
2019-01-23T04:56:08.771Z,20.00
2019-01-23T04:58:39.314Z,22.03
2019-01-23T05:01:09.882Z,15.50
2019-01-23T05:03:40.479Z,21.80
2019-01-23T05:06:10.949Z,25.97
2019-01-23T05:08:41.485Z,19.80
2019-01-23T05:11:11.975Z,17.70
2019-01-23T05:13:42.544Z,17.27
2019-01-23T05:16:13.028Z,18.70
2019-01-23T05:18:43.544Z,26.60
2019-01-23T05:21:14.055Z,22.33
2019-01-23T05:23:45.101Z,23.00
2019-01-23T05:26:15.633Z,26.07
2019-01-23T05:28:46.119Z,44.57
2019-01-23T05:31:16.636Z,82.47
2019-01-23T05:33:47.239Z,97.30
2019-01-23T05:36:17.736Z,86.50
2019-01-23T05:38:48.251Z,41.87
2019-01-23T05:41:18.808Z,24.50
2019-01-23T05:43:49.350Z,18.63
2019-01-23T05:46:21.374Z,23.77
2019-01-23T05:48:51.892Z,27.87
2019-01-23T05:51:22.555Z,28.30
2019-01-23T05:53:53.052Z,20.17
2019-01-23T05:56:26.251Z,28.00
2019-01-23T05:58:56.754Z,18.67
2019-01-23T06:01:27.437Z,34.07
2019-01-23T06:03:58.081Z,22.43
2019-01-23T06:06:28.909Z,29.37
2019-01-23T06:08:59.489Z,24.97
2019-01-23T06:11:29.971Z,20.03
2019-01-23T06:14:00.489Z,104.53
2019-01-23T06:16:32.211Z,47.97
2019-01-23T06:19:02.731Z,28.07
2019-01-23T06:21:33.262Z,29.03
2019-01-23T06:24:24.635Z,30.30
2019-01-23T06:26:56.147Z,26.87
2019-01-23T06:29:26.678Z,23.40
2019-01-23T06:31:57.183Z,28.50
2019-01-23T06:34:27.699Z,25.17
2019-01-23T06:36:59.333Z,21.47
2019-01-23T06:39:29.992Z,22.10
2019-01-23T06:42:00.614Z,23.17
2019-01-23T06:44:31.133Z,33.57
2019-01-23T06:47:01.626Z,27.70
2019-01-23T06:49:32.130Z,28.40
2019-01-23T06:52:02.659Z,36.17
2019-01-23T06:54:33.168Z,33.43
2019-01-23T06:57:03.719Z,34.77
2019-01-23T06:59:34.368Z,63.83
2019-01-23T07:02:05.998Z,37.43
2019-01-23T07:04:36.494Z,28.07
2019-01-23T07:07:07.009Z,31.60
2019-01-23T07:09:37.497Z,27.93
2019-01-23T07:12:08.042Z,18.10
2019-01-23T07:14:38.528Z,29.07
2019-01-23T07:17:09.048Z,28.03
2019-01-23T07:19:39.538Z,26.17
2019-01-23T07:22:10.057Z,18.03
2019-01-23T07:24:41.420Z,20.73
2019-01-23T07:27:11.928Z,24.57
2019-01-23T07:29:42.420Z,27.37
2019-01-23T07:32:13.021Z,17.67
2019-01-23T07:34:43.518Z,26.87
2019-01-23T07:37:14.046Z,26.20
2019-01-23T07:39:44.533Z,25.00
2019-01-23T07:42:15.055Z,24.83
2019-01-23T07:44:45.553Z,44.83
2019-01-23T07:47:16.070Z,35.73
2019-01-23T07:49:46.561Z,46.00
2019-01-23T07:52:17.086Z,26.40
2019-01-23T07:54:47.593Z,25.07
2019-01-23T07:57:18.117Z,40.80
2019-01-23T07:59:51.836Z,23.47
2019-01-23T08:02:22.344Z,27.10
2019-01-23T08:04:52.850Z,33.10
2019-01-23T08:07:23.373Z,36.97
2019-01-23T08:09:53.882Z,28.20
2019-01-23T08:12:24.438Z,33.27
2019-01-23T08:14:54.944Z,20.90
2019-01-23T08:17:25.444Z,25.93
2019-01-23T08:19:55.943Z,34.13
2019-01-23T08:22:26.495Z,24.30
2019-01-23T08:24:56.990Z,25.27
2019-01-23T08:27:28.622Z,25.23
2019-01-23T08:29:59.098Z,25.77
2019-01-23T08:32:29.613Z,88.27
2019-01-23T08:35:00.230Z,52.37
2019-01-23T08:37:30.693Z,27.47
2019-01-23T08:40:01.204Z,20.87
2019-01-23T08:42:31.720Z,23.57
2019-01-23T08:45:02.196Z,24.63
2019-01-23T08:47:32.731Z,21.57
2019-01-23T08:50:04.774Z,27.33
2019-01-23T08:52:35.251Z,17.90
2019-01-23T08:55:07.793Z,39.40
2019-01-23T08:57:38.270Z,42.70
2019-01-23T09:00:15.986Z,42.03
2019-01-23T09:02:46.602Z,24.30
2019-01-23T09:05:17.361Z,24.30
2019-01-23T09:07:47.830Z,21.77
2019-01-23T09:10:29.932Z,23.80
2019-01-23T09:13:01.010Z,24.73
2019-01-23T09:15:31.630Z,34.13
2019-01-23T09:18:03.735Z,30.40
2019-01-23T09:20:34.205Z,34.90
2019-01-23T09:23:04.849Z,30.93
2019-01-23T09:25:38.081Z,30.80
2019-01-23T09:28:08.583Z,29.90
2019-01-23T09:30:52.703Z,30.47
2019-01-23T09:33:30.442Z,32.93
2019-01-23T09:36:26.653Z,32.13
2019-01-23T09:39:25.052Z,25.47
2019-01-23T09:42:33.264Z,31.13
2019-01-23T09:45:55.876Z,25.73
2019-01-23T09:48:36.784Z,27.07
2019-01-23T09:51:26.383Z,28.83
2019-01-23T09:54:04.545Z,29.40
2019-01-23T09:56:35.010Z,33.73
2019-01-23T09:59:05.635Z,27.27
2019-01-23T10:01:36.138Z,27.07
2019-01-23T10:04:07.316Z,28.20
2019-01-23T10:06:37.791Z,33.03
2019-01-23T10:09:09.788Z,30.17
2019-01-23T10:11:41.814Z,26.50
2019-01-23T10:14:12.320Z,31.57
2019-01-23T10:16:42.855Z,27.00
2019-01-23T10:19:13.399Z,32.90
2019-01-23T10:21:44.678Z,28.40
2019-01-23T10:24:17.154Z,32.33
2019-01-23T10:26:47.650Z,26.93
2019-01-23T10:29:18.118Z,31.67
2019-01-23T10:31:48.633Z,24.10
2019-01-23T10:34:19.108Z,30.47
2019-01-23T10:36:50.935Z,27.63
2019-01-23T10:39:21.415Z,30.60
2019-01-23T10:41:51.926Z,29.27
2019-01-23T10:44:23.958Z,50.20
2019-01-23T10:46:54.427Z,64.83
2019-01-23T10:49:24.936Z,30.60
2019-01-23T10:51:56.882Z,33.20
2019-01-23T10:54:27.469Z,32.67
2019-01-23T10:56:57.928Z,24.73
2019-01-23T10:59:28.449Z,34.17
2019-01-23T11:01:58.944Z,31.33
2019-01-23T11:04:29.429Z,27.67
2019-01-23T11:07:01.807Z,33.00
2019-01-23T11:09:32.289Z,29.80
2019-01-23T11:12:02.856Z,28.67
2019-01-23T11:14:33.330Z,33.67
2019-01-23T11:17:03.870Z,34.27
2019-01-23T11:19:34.398Z,30.77
2019-01-23T11:22:05.233Z,34.10
2019-01-23T11:24:35.705Z,33.63
2019-01-23T11:27:06.351Z,44.63
2019-01-23T11:29:36.817Z,152.87
2019-01-23T11:32:07.391Z,111.63
2019-01-23T11:34:37.915Z,65.63
2019-01-23T11:37:08.397Z,47.80
2019-01-23T11:39:38.895Z,37.37
2019-01-23T11:42:09.463Z,36.20
2019-01-23T11:44:39.986Z,32.77
2019-01-23T11:47:10.603Z,31.23
2019-01-23T11:49:41.171Z,33.93
2019-01-23T11:52:11.668Z,38.57
2019-01-23T11:54:42.135Z,30.97
2019-01-23T11:57:12.707Z,36.97
2019-01-23T11:59:43.192Z,36.53
2019-01-23T12:02:13.831Z,40.47
2019-01-23T12:04:44.351Z,38.20
2019-01-23T12:07:14.834Z,34.00
2019-01-23T12:09:45.342Z,33.60
2019-01-23T12:12:15.827Z,29.90
2019-01-23T12:14:46.315Z,33.50
2019-01-23T12:17:16.899Z,32.60
2019-01-23T12:19:47.594Z,30.13
2019-01-23T12:22:19.635Z,35.40
2019-01-23T12:24:50.108Z,28.00
2019-01-23T12:27:20.863Z,34.40
2019-01-23T12:29:52.876Z,37.40
2019-01-23T12:32:23.394Z,34.13
2019-01-23T12:34:53.931Z,33.93
2019-01-23T12:37:24.428Z,24.00
2019-01-23T12:39:54.904Z,29.27
2019-01-23T12:42:25.424Z,27.77
2019-01-23T12:44:55.968Z,29.50
2019-01-23T12:47:26.585Z,30.73
2019-01-23T12:49:57.059Z,32.07
2019-01-23T12:52:27.588Z,37.97
2019-01-23T12:54:58.921Z,42.13
2019-01-23T12:57:31.061Z,33.40
2019-01-23T13:00:05.409Z,37.70
2019-01-23T13:02:33.766Z,33.33
2019-01-23T13:05:06.254Z,32.53
2019-01-23T13:07:36.841Z,47.77
2019-01-23T13:10:14.646Z,40.53
2019-01-23T13:12:45.595Z,34.73
2019-01-23T13:15:22.267Z,33.07
2019-01-23T13:17:52.851Z,45.20
2019-01-23T13:20:25.933Z,36.23
2019-01-23T13:22:56.516Z,34.40
2019-01-23T13:25:29.429Z,35.77
2019-01-23T13:28:02.231Z,28.77
2019-01-23T13:30:32.794Z,32.77
2019-01-23T13:33:03.472Z,29.13
2019-01-23T13:35:38.792Z,33.33
2019-01-23T13:38:12.888Z,37.50
2019-01-23T13:40:43.455Z,35.27
2019-01-23T13:43:14.064Z,41.67
2019-01-23T13:45:44.564Z,39.47
2019-01-23T13:48:15.206Z,42.50
2019-01-23T13:50:45.754Z,40.80
2019-01-23T13:53:16.251Z,44.97
2019-01-23T13:55:46.760Z,50.17
2019-01-23T13:58:17.236Z,46.30
2019-01-23T14:00:47.819Z,49.10
2019-01-23T14:03:18.290Z,51.43
2019-01-23T14:05:48.791Z,54.90
2019-01-23T14:08:19.342Z,47.67
2019-01-23T14:10:49.858Z,37.73
2019-01-23T14:13:20.318Z,53.47
2019-01-23T14:15:50.902Z,44.23
2019-01-23T14:18:21.450Z,49.03
2019-01-23T14:20:51.986Z,54.87
2019-01-23T14:23:22.464Z,49.50
2019-01-23T14:25:52.971Z,41.93
2019-01-23T14:28:23.441Z,49.53
2019-01-23T14:30:54.395Z,46.87
2019-01-23T14:33:24.895Z,47.73
2019-01-23T14:35:55.393Z,48.00
2019-01-23T14:38:25.902Z,44.03
2019-01-23T14:40:56.400Z,45.60
2019-01-23T14:43:26.962Z,49.47
2019-01-23T14:45:57.446Z,47.70
2019-01-23T14:48:27.944Z,47.13
2019-01-23T14:50:58.585Z,41.73
2019-01-23T14:53:29.055Z,48.20
2019-01-23T14:55:59.549Z,41.40
2019-01-23T14:58:30.687Z,42.03
2019-01-23T15:01:01.203Z,40.93
2019-01-23T15:03:31.691Z,47.33
2019-01-23T15:06:02.254Z,46.00
2019-01-23T15:08:32.739Z,52.07
2019-01-23T15:11:03.231Z,45.93
2019-01-23T15:13:33.766Z,46.97
2019-01-23T15:16:04.406Z,51.87
2019-01-23T15:18:34.877Z,62.23
2019-01-23T15:21:09.503Z,64.97
2019-01-23T15:23:39.958Z,54.10
2019-01-23T15:26:10.477Z,58.60
2019-01-23T15:28:41.016Z,56.23
2019-01-23T15:31:11.526Z,66.17
2019-01-23T15:33:41.997Z,56.77
2019-01-23T15:36:14.116Z,62.40
2019-01-23T15:38:44.642Z,58.90
2019-01-23T15:41:15.119Z,63.90
2019-01-23T15:43:45.588Z,64.70
2019-01-23T15:46:16.223Z,70.07
2019-01-23T15:48:46.691Z,66.67
2019-01-23T15:51:18.298Z,62.63
2019-01-23T15:53:48.772Z,58.93
2019-01-23T15:56:19.363Z,59.07
2019-01-23T15:58:49.922Z,56.30
2019-01-23T16:01:20.439Z,59.60
2019-01-23T16:03:50.934Z,59.73
2019-01-23T16:06:21.419Z,56.93
2019-01-23T16:08:51.922Z,61.00
2019-01-23T16:11:22.431Z,59.27
2019-01-23T16:13:52.923Z,62.60
2019-01-23T16:16:24.980Z,54.97
2019-01-23T16:18:55.529Z,57.37
2019-01-23T16:21:26.056Z,59.10
2019-01-23T16:23:57.532Z,59.40
2019-01-23T16:26:28.078Z,82.77
2019-01-23T16:28:58.603Z,72.53
2019-01-23T16:31:29.077Z,66.30
2019-01-23T16:33:59.571Z,57.10
2019-01-23T16:36:30.039Z,56.00
2019-01-23T16:39:00.538Z,63.53
2019-01-23T16:41:32.097Z,74.30
2019-01-23T16:44:02.610Z,72.60
2019-01-23T16:46:33.675Z,125.80
2019-01-23T16:49:04.246Z,126.27
2019-01-23T16:51:34.812Z,121.03
2019-01-23T16:54:06.865Z,108.27
2019-01-23T16:56:37.411Z,101.30
2019-01-23T16:59:08.093Z,82.63
2019-01-23T17:01:38.639Z,87.60
2019-01-23T17:04:10.672Z,89.00
2019-01-23T17:06:41.208Z,78.00
2019-01-23T17:09:11.877Z,75.50
2019-01-23T17:11:42.389Z,74.13
2019-01-23T17:14:12.864Z,80.30
2019-01-23T17:16:44.533Z,82.97
2019-01-23T17:19:15.034Z,79.80
2019-01-23T17:21:45.537Z,75.27
2019-01-23T17:24:16.027Z,79.83
2019-01-23T17:26:46.617Z,66.83
2019-01-23T17:29:17.093Z,78.07
2019-01-23T17:31:49.237Z,71.70
2019-01-23T17:34:19.740Z,69.40
2019-01-23T17:36:50.218Z,66.67
2019-01-23T17:39:20.727Z,66.53
2019-01-23T17:41:51.238Z,67.20
2019-01-23T17:44:21.792Z,77.50
2019-01-23T17:46:53.413Z,70.47
2019-01-23T17:49:23.915Z,65.57
2019-01-23T17:51:56.357Z,65.80
2019-01-23T17:54:28.373Z,75.73
2019-01-23T17:56:59.018Z,77.20
2019-01-23T17:59:31.218Z,70.10
2019-01-23T18:02:02.163Z,89.67
2019-01-23T18:04:33.205Z,72.50
2019-01-23T18:07:03.840Z,83.70
2019-01-23T18:09:34.310Z,80.00
2019-01-23T18:12:07.028Z,74.97
2019-01-23T18:14:37.531Z,69.20
2019-01-23T18:17:08.086Z,74.90
2019-01-23T18:19:38.613Z,78.77
2019-01-23T18:22:09.112Z,75.37
2019-01-23T18:24:39.718Z,75.40
2019-01-23T18:27:10.256Z,67.87
2019-01-23T18:29:40.921Z,71.90
2019-01-23T18:32:11.500Z,70.73
2019-01-23T18:34:55.562Z,60.43
2019-01-23T18:37:30.777Z,73.70
2019-01-23T18:40:17.133Z,76.73
2019-01-23T18:42:54.830Z,67.67
2019-01-23T18:45:30.264Z,74.37
2019-01-23T18:48:16.830Z,53.90
2019-01-23T18:51:06.183Z,64.23
2019-01-23T18:53:36.691Z,72.60
2019-01-23T18:56:07.239Z,75.60
2019-01-23T18:58:37.758Z,64.77
2019-01-23T19:01:08.333Z,59.20
2019-01-23T19:03:38.820Z,63.03
2019-01-23T19:06:09.391Z,60.30
2019-01-23T19:08:39.871Z,61.37
2019-01-23T19:11:11.479Z,69.77
2019-01-23T19:13:41.997Z,128.83
2019-01-23T19:16:14.672Z,99.53
2019-01-23T19:18:45.923Z,74.60
2019-01-23T19:21:16.450Z,69.60
2019-01-23T19:23:47.808Z,76.40
2019-01-23T19:26:18.326Z,80.07
2019-01-23T19:28:48.805Z,68.30
2019-01-23T19:31:19.337Z,78.70
2019-01-23T19:33:49.884Z,72.67
2019-01-23T19:36:20.381Z,73.00
2019-01-23T19:38:50.900Z,68.97
2019-01-23T19:41:21.368Z,79.77
2019-01-23T19:43:51.875Z,73.80
2019-01-23T19:46:22.352Z,74.13
2019-01-23T19:48:52.857Z,95.23
2019-01-23T19:51:23.372Z,105.37
2019-01-23T19:53:53.860Z,77.43
2019-01-23T19:56:24.393Z,82.13
2019-01-23T19:58:54.940Z,68.63
2019-01-23T20:01:25.612Z,82.57
2019-01-23T20:03:56.172Z,64.17
2019-01-23T20:06:26.714Z,84.77
2019-01-23T20:08:57.195Z,76.27
2019-01-23T20:11:27.766Z,87.90
2019-01-23T20:13:58.235Z,72.70
2019-01-23T20:16:28.741Z,83.13
2019-01-23T20:19:00.745Z,98.60
2019-01-23T20:21:31.318Z,86.03
2019-01-23T20:24:01.778Z,70.40
2019-01-23T20:26:32.298Z,74.27
2019-01-23T20:29:05.634Z,77.90
2019-01-23T20:31:36.149Z,81.20
2019-01-23T20:34:07.293Z,79.40
2019-01-23T20:36:37.769Z,80.17
2019-01-23T20:39:10.728Z,79.90
2019-01-23T20:41:41.275Z,77.27
2019-01-23T20:44:11.789Z,75.10
2019-01-23T20:46:42.334Z,74.77
2019-01-23T20:49:12.839Z,76.00
2019-01-23T20:51:43.313Z,73.10
2019-01-23T20:54:13.812Z,73.07
2019-01-23T20:56:44.356Z,76.80
2019-01-23T20:59:14.834Z,78.40
2019-01-23T21:01:45.346Z,77.03
2019-01-23T21:04:15.821Z,111.70
2019-01-23T21:06:46.437Z,76.00
2019-01-23T21:09:17.810Z,59.30
2019-01-23T21:11:48.332Z,54.63
2019-01-23T21:14:18.805Z,37.30
2019-01-23T21:16:49.328Z,32.67
2019-01-23T21:19:19.803Z,35.30
2019-01-23T21:21:50.281Z,28.63
2019-01-23T21:24:20.812Z,27.07
2019-01-23T21:26:51.301Z,37.50
2019-01-23T21:29:21.787Z,34.07
2019-01-23T21:31:52.291Z,26.87
2019-01-23T21:34:22.766Z,32.97
2019-01-23T21:36:53.261Z,29.90
2019-01-23T21:39:23.731Z,27.90
2019-01-23T21:41:54.251Z,34.10
2019-01-23T21:44:24.718Z,31.97
2019-01-23T21:46:55.234Z,30.63
2019-01-23T21:49:25.711Z,31.57
2019-01-23T21:51:56.225Z,29.27
2019-01-23T21:54:26.775Z,29.90
2019-01-23T21:56:57.342Z,36.90
2019-01-23T21:59:27.811Z,40.53
2019-01-23T22:01:58.387Z,38.53
2019-01-23T22:04:28.878Z,34.60
2019-01-23T22:06:59.360Z,37.67
2019-01-23T22:09:29.867Z,38.23
2019-01-23T22:12:00.345Z,32.20
2019-01-23T22:14:30.851Z,31.87
2019-01-23T22:17:01.324Z,32.10
2019-01-23T22:19:32.064Z,31.37
2019-01-23T22:22:02.533Z,30.17
2019-01-23T22:24:33.029Z,36.70
2019-01-23T22:27:03.500Z,39.10
2019-01-23T22:29:34.017Z,39.73
2019-01-23T22:32:04.853Z,34.20
2019-01-23T22:34:35.362Z,36.53
2019-01-23T22:37:05.902Z,30.27
2019-01-23T22:39:36.393Z,29.10
2019-01-23T22:42:06.930Z,28.43
2019-01-23T22:44:37.433Z,34.90
2019-01-23T22:47:07.894Z,36.17
2019-01-23T22:49:38.396Z,33.87
2019-01-23T22:52:08.858Z,32.30
2019-01-23T22:54:39.396Z,30.70
2019-01-23T22:57:09.859Z,28.83
2019-01-23T22:59:40.361Z,30.70
2019-01-23T23:02:10.837Z,35.27
2019-01-23T23:04:41.350Z,31.33
2019-01-23T23:07:11.829Z,34.17
2019-01-23T23:09:42.339Z,31.50
2019-01-23T23:12:12.803Z,34.83
2019-01-23T23:14:43.376Z,39.73
2019-01-23T23:17:13.845Z,42.80
2019-01-23T23:19:44.388Z,53.07
2019-01-23T23:22:14.867Z,65.30
2019-01-23T23:24:45.370Z,59.07
2019-01-23T23:27:15.845Z,61.83
2019-01-23T23:29:46.369Z,65.53
2019-01-23T23:32:16.833Z,67.40
2019-01-23T23:34:47.350Z,76.90
2019-01-23T23:37:17.820Z,73.80
2019-01-23T23:39:48.319Z,72.50
2019-01-23T23:42:18.864Z,68.27
2019-01-23T23:44:49.440Z,64.20
2019-01-23T23:47:19.935Z,54.33
2019-01-23T23:49:50.435Z,61.33
2019-01-23T23:52:20.917Z,63.07
2019-01-23T23:54:51.500Z,55.60
2019-01-23T23:57:22.077Z,58.87
2019-01-23T23:59:52.545Z,63.53
